sensor_id;sensor_type;location;lat;lon;timestamp;temperature;humidity
5154;DHT22;2595;53.584;10.084;2023-02-24T00:00:11;5.50;99.90
5154;DHT22;2595;53.584;10.084;2023-02-24T00:02:58;5.50;99.90
5154;DHT22;2595;53.584;10.084;2023-02-24T00:05:24;5.50;99.90
5154;DHT22;2595;53.584;10.084;2023-02-24T00:07:49;5.40;99.90
5154;DHT22;2595;53.584;10.084;2023-02-24T00:10:15;5.50;99.90
5154;DHT22;2595;53.584;10.084;2023-02-24T00:12:45;5.40;99.90
5154;DHT22;2595;53.584;10.084;2023-02-24T00:15:14;5.50;99.90
5154;DHT22;2595;53.584;10.084;2023-02-24T00:17:41;5.50;99.90
5154;DHT22;2595;53.584;10.084;2023-02-24T00:20:11;5.50;99.90
5154;DHT22;2595;53.584;10.084;2023-02-24T00:22:38;5.50;99.90
5154;DHT22;2595;53.584;10.084;2023-02-24T00:25:04;5.50;99.90
5154;DHT22;2595;53.584;10.084;2023-02-24T00:27:30;5.50;99.90
5154;DHT22;2595;53.584;10.084;2023-02-24T00:29:56;5.60;99.90
5154;DHT22;2595;53.584;10.084;2023-02-24T00:32:22;5.60;99.90
5154;DHT22;2595;53.584;10.084;2023-02-24T00:34:48;5.60;99.90
5154;DHT22;2595;53.584;10.084;2023-02-24T00:37:13;5.60;99.90
5154;DHT22;2595;53.584;10.084;2023-02-24T00:39:48;5.50;99.90
5154;DHT22;2595;53.584;10.084;2023-02-24T00:42:15;5.50;99.90
5154;DHT22;2595;53.584;10.084;2023-02-24T00:44:45;5.50;99.90
5154;DHT22;2595;53.584;10.084;2023-02-24T00:47:12;5.50;99.90
5154;DHT22;2595;53.584;10.084;2023-02-24T00:49:40;5.50;99.90
5154;DHT22;2595;53.584;10.084;2023-02-24T00:52:18;5.50;99.90
5154;DHT22;2595;53.584;10.084;2023-02-24T00:54:46;5.50;99.90
5154;DHT22;2595;53.584;10.084;2023-02-24T00:57:15;5.60;99.90
5154;DHT22;2595;53.584;10.084;2023-02-24T00:59:45;5.50;99.90
5154;DHT22;2595;53.584;10.084;2023-02-24T01:02:15;5.60;99.90
5154;DHT22;2595;53.584;10.084;2023-02-24T01:04:41;5.60;99.90
5154;DHT22;2595;53.584;10.084;2023-02-24T01:07:09;5.60;99.90
5154;DHT22;2595;53.584;10.084;2023-02-24T01:09:37;5.60;99.90
5154;DHT22;2595;53.584;10.084;2023-02-24T01:12:05;5.50;99.90
5154;DHT22;2595;53.584;10.084;2023-02-24T01:14:47;5.50;99.90
5154;DHT22;2595;53.584;10.084;2023-02-24T01:17:13;5.50;99.90
5154;DHT22;2595;53.584;10.084;2023-02-24T01:19:39;5.40;99.90
5154;DHT22;2595;53.584;10.084;2023-02-24T01:22:07;5.40;99.90
5154;DHT22;2595;53.584;10.084;2023-02-24T01:24:37;5.40;99.90
5154;DHT22;2595;53.584;10.084;2023-02-24T01:27:05;5.40;99.90
5154;DHT22;2595;53.584;10.084;2023-02-24T01:29:30;5.40;99.90
5154;DHT22;2595;53.584;10.084;2023-02-24T01:31:56;5.40;99.90
5154;DHT22;2595;53.584;10.084;2023-02-24T01:34:26;5.40;99.90
5154;DHT22;2595;53.584;10.084;2023-02-24T01:36:52;5.40;99.90
5154;DHT22;2595;53.584;10.084;2023-02-24T01:39:17;5.40;99.90
5154;DHT22;2595;53.584;10.084;2023-02-24T01:41:45;5.40;99.90
5154;DHT22;2595;53.584;10.084;2023-02-24T01:46:46;5.50;99.90
5154;DHT22;2595;53.584;10.084;2023-02-24T01:49:26;5.50;99.90
5154;DHT22;2595;53.584;10.084;2023-02-24T01:52:09;5.40;99.90
5154;DHT22;2595;53.584;10.084;2023-02-24T01:55:13;5.50;99.90
5154;DHT22;2595;53.584;10.084;2023-02-24T01:57:41;5.50;99.90
5154;DHT22;2595;53.584;10.084;2023-02-24T02:00:11;5.50;99.90
5154;DHT22;2595;53.584;10.084;2023-02-24T02:02:59;5.50;99.90
5154;DHT22;2595;53.584;10.084;2023-02-24T02:05:26;5.50;99.90
5154;DHT22;2595;53.584;10.084;2023-02-24T02:07:52;5.50;99.90
5154;DHT22;2595;53.584;10.084;2023-02-24T02:10:19;5.50;99.90
5154;DHT22;2595;53.584;10.084;2023-02-24T02:12:45;5.50;99.90
5154;DHT22;2595;53.584;10.084;2023-02-24T02:15:12;5.50;99.90
5154;DHT22;2595;53.584;10.084;2023-02-24T02:18:05;5.50;99.90
5154;DHT22;2595;53.584;10.084;2023-02-24T02:23:32;5.50;99.90
5154;DHT22;2595;53.584;10.084;2023-02-24T02:35:20;5.40;99.90
5154;DHT22;2595;53.584;10.084;2023-02-24T02:37:56;5.40;99.90
5154;DHT22;2595;53.584;10.084;2023-02-24T02:40:45;5.40;99.90
5154;DHT22;2595;53.584;10.084;2023-02-24T02:43:50;5.30;99.90
5154;DHT22;2595;53.584;10.084;2023-02-24T02:49:18;5.30;99.90
5154;DHT22;2595;53.584;10.084;2023-02-24T02:51:59;5.30;99.90
5154;DHT22;2595;53.584;10.084;2023-02-24T02:54:48;5.30;99.90
5154;DHT22;2595;53.584;10.084;2023-02-24T02:57:26;5.30;99.90
5154;DHT22;2595;53.584;10.084;2023-02-24T03:00:07;5.30;99.90
5154;DHT22;2595;53.584;10.084;2023-02-24T03:02:38;5.30;99.90
5154;DHT22;2595;53.584;10.084;2023-02-24T03:05:06;5.30;99.90
5154;DHT22;2595;53.584;10.084;2023-02-24T03:07:39;5.30;99.90
5154;DHT22;2595;53.584;10.084;2023-02-24T03:10:09;5.30;99.90
5154;DHT22;2595;53.584;10.084;2023-02-24T03:12:42;5.30;99.90
5154;DHT22;2595;53.584;10.084;2023-02-24T03:15:12;5.30;99.90
5154;DHT22;2595;53.584;10.084;2023-02-24T03:17:40;5.30;99.90
5154;DHT22;2595;53.584;10.084;2023-02-24T03:20:17;5.20;99.90
5154;DHT22;2595;53.584;10.084;2023-02-24T03:22:59;5.20;99.90
5154;DHT22;2595;53.584;10.084;2023-02-24T03:25:35;5.20;99.90
5154;DHT22;2595;53.584;10.084;2023-02-24T03:28:07;5.20;99.90
5154;DHT22;2595;53.584;10.084;2023-02-24T03:30:44;5.30;99.90
5154;DHT22;2595;53.584;10.084;2023-02-24T03:33:20;5.20;99.90
5154;DHT22;2595;53.584;10.084;2023-02-24T03:35:48;5.20;99.90
5154;DHT22;2595;53.584;10.084;2023-02-24T03:38:16;5.30;99.90
5154;DHT22;2595;53.584;10.084;2023-02-24T03:40:42;5.30;99.90
5154;DHT22;2595;53.584;10.084;2023-02-24T03:43:16;5.20;99.90
5154;DHT22;2595;53.584;10.084;2023-02-24T03:45:44;5.20;99.90
5154;DHT22;2595;53.584;10.084;2023-02-24T03:48:11;5.20;99.90
5154;DHT22;2595;53.584;10.084;2023-02-24T03:50:38;5.10;99.90
5154;DHT22;2595;53.584;10.084;2023-02-24T03:53:43;5.20;99.90
5154;DHT22;2595;53.584;10.084;2023-02-24T03:56:44;5.20;99.90
5154;DHT22;2595;53.584;10.084;2023-02-24T04:02:07;5.20;99.90
5154;DHT22;2595;53.584;10.084;2023-02-24T04:04:47;5.20;99.90
5154;DHT22;2595;53.584;10.084;2023-02-24T04:07:59;5.20;99.90
5154;DHT22;2595;53.584;10.084;2023-02-24T04:10:26;5.20;99.90
5154;DHT22;2595;53.584;10.084;2023-02-24T04:13:01;5.20;99.90
5154;DHT22;2595;53.584;10.084;2023-02-24T04:15:37;5.20;99.90
5154;DHT22;2595;53.584;10.084;2023-02-24T04:18:26;5.20;99.90
5154;DHT22;2595;53.584;10.084;2023-02-24T04:20:54;5.20;99.90
5154;DHT22;2595;53.584;10.084;2023-02-24T04:23:41;5.20;99.90
5154;DHT22;2595;53.584;10.084;2023-02-24T04:26:11;5.10;99.90
5154;DHT22;2595;53.584;10.084;2023-02-24T04:28:39;5.10;99.90
5154;DHT22;2595;53.584;10.084;2023-02-24T04:31:08;5.10;99.90
5154;DHT22;2595;53.584;10.084;2023-02-24T04:33:35;5.10;99.90
5154;DHT22;2595;53.584;10.084;2023-02-24T04:36:03;5.10;99.90
5154;DHT22;2595;53.584;10.084;2023-02-24T04:38:29;5.10;99.90
5154;DHT22;2595;53.584;10.084;2023-02-24T04:40:55;5.10;99.90
5154;DHT22;2595;53.584;10.084;2023-02-24T04:43:22;5.00;99.90
5154;DHT22;2595;53.584;10.084;2023-02-24T04:45:48;5.00;99.90
5154;DHT22;2595;53.584;10.084;2023-02-24T04:48:16;5.00;99.90
5154;DHT22;2595;53.584;10.084;2023-02-24T04:50:44;5.10;99.90
5154;DHT22;2595;53.584;10.084;2023-02-24T04:53:15;5.10;99.90
5154;DHT22;2595;53.584;10.084;2023-02-24T04:55:46;5.00;99.90
5154;DHT22;2595;53.584;10.084;2023-02-24T04:58:17;5.00;99.90
5154;DHT22;2595;53.584;10.084;2023-02-24T05:00:47;5.00;99.90
5154;DHT22;2595;53.584;10.084;2023-02-24T05:03:15;5.10;99.90
5154;DHT22;2595;53.584;10.084;2023-02-24T05:05:54;5.00;99.90
5154;DHT22;2595;53.584;10.084;2023-02-24T05:08:25;5.00;99.90
5154;DHT22;2595;53.584;10.084;2023-02-24T05:10:52;5.00;99.90
5154;DHT22;2595;53.584;10.084;2023-02-24T05:13:21;5.00;99.90
5154;DHT22;2595;53.584;10.084;2023-02-24T05:15:52;5.00;99.90
5154;DHT22;2595;53.584;10.084;2023-02-24T05:18:17;5.00;99.90
5154;DHT22;2595;53.584;10.084;2023-02-24T05:20:50;5.00;99.90
5154;DHT22;2595;53.584;10.084;2023-02-24T05:23:37;5.00;99.90
5154;DHT22;2595;53.584;10.084;2023-02-24T05:26:05;5.00;99.90
5154;DHT22;2595;53.584;10.084;2023-02-24T05:28:35;5.00;99.90
5154;DHT22;2595;53.584;10.084;2023-02-24T05:31:12;4.90;99.90
5154;DHT22;2595;53.584;10.084;2023-02-24T05:33:45;5.00;99.90
5154;DHT22;2595;53.584;10.084;2023-02-24T05:36:15;5.00;99.90
5154;DHT22;2595;53.584;10.084;2023-02-24T05:38:49;5.00;99.90
5154;DHT22;2595;53.584;10.084;2023-02-24T05:41:20;5.00;99.90
5154;DHT22;2595;53.584;10.084;2023-02-24T05:43:48;5.00;99.90
5154;DHT22;2595;53.584;10.084;2023-02-24T05:46:18;4.90;99.90
5154;DHT22;2595;53.584;10.084;2023-02-24T05:48:48;4.90;99.90
5154;DHT22;2595;53.584;10.084;2023-02-24T05:51:15;4.90;99.90
5154;DHT22;2595;53.584;10.084;2023-02-24T05:53:41;4.90;99.90
5154;DHT22;2595;53.584;10.084;2023-02-24T05:56:08;4.90;99.90
5154;DHT22;2595;53.584;10.084;2023-02-24T05:58:33;5.00;99.90
5154;DHT22;2595;53.584;10.084;2023-02-24T06:01:08;5.00;99.90
5154;DHT22;2595;53.584;10.084;2023-02-24T06:03:34;4.90;99.90
5154;DHT22;2595;53.584;10.084;2023-02-24T06:06:00;4.90;99.90
5154;DHT22;2595;53.584;10.084;2023-02-24T06:08:35;4.90;99.90
5154;DHT22;2595;53.584;10.084;2023-02-24T06:11:09;5.00;99.90
5154;DHT22;2595;53.584;10.084;2023-02-24T06:13:38;5.00;99.90
5154;DHT22;2595;53.584;10.084;2023-02-24T06:16:06;4.90;99.90
5154;DHT22;2595;53.584;10.084;2023-02-24T06:18:32;4.90;99.90
5154;DHT22;2595;53.584;10.084;2023-02-24T06:21:01;4.90;99.90
5154;DHT22;2595;53.584;10.084;2023-02-24T06:23:26;4.90;99.90
5154;DHT22;2595;53.584;10.084;2023-02-24T06:25:52;4.90;99.90
5154;DHT22;2595;53.584;10.084;2023-02-24T06:28:22;4.90;99.90
5154;DHT22;2595;53.584;10.084;2023-02-24T06:30:49;4.90;99.90
5154;DHT22;2595;53.584;10.084;2023-02-24T06:33:14;4.80;99.90
5154;DHT22;2595;53.584;10.084;2023-02-24T06:35:40;4.80;99.90
5154;DHT22;2595;53.584;10.084;2023-02-24T06:38:06;4.70;99.90
5154;DHT22;2595;53.584;10.084;2023-02-24T06:40:32;4.70;99.90
5154;DHT22;2595;53.584;10.084;2023-02-24T06:42:58;4.70;99.90
5154;DHT22;2595;53.584;10.084;2023-02-24T06:45:23;4.70;99.90
5154;DHT22;2595;53.584;10.084;2023-02-24T06:47:50;4.70;99.90
5154;DHT22;2595;53.584;10.084;2023-02-24T06:50:17;4.60;99.90
5154;DHT22;2595;53.584;10.084;2023-02-24T06:52:48;4.60;99.90
5154;DHT22;2595;53.584;10.084;2023-02-24T06:55:14;4.50;99.90
5154;DHT22;2595;53.584;10.084;2023-02-24T06:57:54;4.50;99.90
5154;DHT22;2595;53.584;10.084;2023-02-24T07:00:28;4.50;99.90
5154;DHT22;2595;53.584;10.084;2023-02-24T07:03:14;4.40;99.90
5154;DHT22;2595;53.584;10.084;2023-02-24T07:05:47;4.40;99.90
5154;DHT22;2595;53.584;10.084;2023-02-24T07:08:23;4.40;99.90
5154;DHT22;2595;53.584;10.084;2023-02-24T07:10:56;4.40;99.90
5154;DHT22;2595;53.584;10.084;2023-02-24T07:13:26;4.40;99.90
5154;DHT22;2595;53.584;10.084;2023-02-24T07:15:54;4.30;99.90
5154;DHT22;2595;53.584;10.084;2023-02-24T07:18:20;4.20;99.90
5154;DHT22;2595;53.584;10.084;2023-02-24T07:20:47;4.20;99.90
5154;DHT22;2595;53.584;10.084;2023-02-24T07:23:15;4.20;99.90
5154;DHT22;2595;53.584;10.084;2023-02-24T07:25:41;4.20;99.90
5154;DHT22;2595;53.584;10.084;2023-02-24T07:28:12;4.20;99.90
5154;DHT22;2595;53.584;10.084;2023-02-24T07:30:39;4.20;99.90
5154;DHT22;2595;53.584;10.084;2023-02-24T07:33:06;4.20;99.90
5154;DHT22;2595;53.584;10.084;2023-02-24T07:35:32;4.20;99.90
5154;DHT22;2595;53.584;10.084;2023-02-24T07:38:00;4.20;99.90
5154;DHT22;2595;53.584;10.084;2023-02-24T07:40:27;4.20;99.90
5154;DHT22;2595;53.584;10.084;2023-02-24T07:42:53;4.20;99.90
5154;DHT22;2595;53.584;10.084;2023-02-24T07:45:19;4.20;99.90
5154;DHT22;2595;53.584;10.084;2023-02-24T07:47:45;4.20;99.90
5154;DHT22;2595;53.584;10.084;2023-02-24T07:50:11;4.20;99.90
5154;DHT22;2595;53.584;10.084;2023-02-24T07:52:45;4.20;99.90
5154;DHT22;2595;53.584;10.084;2023-02-24T07:55:13;4.20;99.90
5154;DHT22;2595;53.584;10.084;2023-02-24T07:57:40;4.20;99.90
5154;DHT22;2595;53.584;10.084;2023-02-24T08:00:12;4.20;99.90
5154;DHT22;2595;53.584;10.084;2023-02-24T08:02:43;4.20;99.90
5154;DHT22;2595;53.584;10.084;2023-02-24T08:05:09;4.20;99.90
5154;DHT22;2595;53.584;10.084;2023-02-24T08:07:35;4.20;99.90
5154;DHT22;2595;53.584;10.084;2023-02-24T08:10:00;4.20;99.90
5154;DHT22;2595;53.584;10.084;2023-02-24T08:12:40;4.10;99.90
5154;DHT22;2595;53.584;10.084;2023-02-24T08:15:07;4.10;99.90
5154;DHT22;2595;53.584;10.084;2023-02-24T08:17:42;4.10;99.90
5154;DHT22;2595;53.584;10.084;2023-02-24T08:20:08;4.10;99.90
5154;DHT22;2595;53.584;10.084;2023-02-24T08:22:37;4.10;99.90
5154;DHT22;2595;53.584;10.084;2023-02-24T08:25:08;4.10;99.90
5154;DHT22;2595;53.584;10.084;2023-02-24T08:27:36;4.20;99.90
5154;DHT22;2595;53.584;10.084;2023-02-24T08:30:08;4.20;99.90
5154;DHT22;2595;53.584;10.084;2023-02-24T08:32:45;4.10;99.90
5154;DHT22;2595;53.584;10.084;2023-02-24T08:35:16;4.10;99.90
5154;DHT22;2595;53.584;10.084;2023-02-24T08:37:49;4.10;99.90
5154;DHT22;2595;53.584;10.084;2023-02-24T08:40:23;4.10;99.90
5154;DHT22;2595;53.584;10.084;2023-02-24T08:43:00;4.10;99.90
5154;DHT22;2595;53.584;10.084;2023-02-24T08:45:47;4.10;99.90
5154;DHT22;2595;53.584;10.084;2023-02-24T08:48:24;4.10;99.90
5154;DHT22;2595;53.584;10.084;2023-02-24T08:51:29;4.10;99.90
5154;DHT22;2595;53.584;10.084;2023-02-24T08:54:00;4.00;99.90
5154;DHT22;2595;53.584;10.084;2023-02-24T08:56:31;4.10;99.90
5154;DHT22;2595;53.584;10.084;2023-02-24T08:59:01;4.00;99.90
5154;DHT22;2595;53.584;10.084;2023-02-24T09:01:39;4.00;99.90
5154;DHT22;2595;53.584;10.084;2023-02-24T09:04:16;4.10;99.90
5154;DHT22;2595;53.584;10.084;2023-02-24T09:06:47;4.10;99.90
5154;DHT22;2595;53.584;10.084;2023-02-24T09:09:15;4.00;99.90
5154;DHT22;2595;53.584;10.084;2023-02-24T09:11:55;4.00;99.90
5154;DHT22;2595;53.584;10.084;2023-02-24T09:14:27;4.00;99.90
5154;DHT22;2595;53.584;10.084;2023-02-24T09:16:53;4.10;99.90
5154;DHT22;2595;53.584;10.084;2023-02-24T09:22:16;4.10;99.90
5154;DHT22;2595;53.584;10.084;2023-02-24T09:25:13;4.10;99.90
5154;DHT22;2595;53.584;10.084;2023-02-24T09:28:16;4.00;99.90
5154;DHT22;2595;53.584;10.084;2023-02-24T09:31:02;4.00;99.90
5154;DHT22;2595;53.584;10.084;2023-02-24T09:33:36;4.00;99.90
5154;DHT22;2595;53.584;10.084;2023-02-24T09:36:13;4.00;99.90
5154;DHT22;2595;53.584;10.084;2023-02-24T09:38:48;4.00;99.90
5154;DHT22;2595;53.584;10.084;2023-02-24T09:44:10;4.00;99.90
5154;DHT22;2595;53.584;10.084;2023-02-24T09:46:47;4.10;99.90
5154;DHT22;2595;53.584;10.084;2023-02-24T09:49:18;4.10;99.90
5154;DHT22;2595;53.584;10.084;2023-02-24T09:51:45;4.10;99.90
5154;DHT22;2595;53.584;10.084;2023-02-24T09:54:19;4.10;99.90
5154;DHT22;2595;53.584;10.084;2023-02-24T09:57:00;4.10;99.90
5154;DHT22;2595;53.584;10.084;2023-02-24T10:02:44;4.00;99.90
5154;DHT22;2595;53.584;10.084;2023-02-24T10:05:32;4.10;99.90
5154;DHT22;2595;53.584;10.084;2023-02-24T10:08:10;4.10;99.90
5154;DHT22;2595;53.584;10.084;2023-02-24T10:10:38;4.10;99.90
5154;DHT22;2595;53.584;10.084;2023-02-24T10:13:20;4.10;99.90
5154;DHT22;2595;53.584;10.084;2023-02-24T10:15:55;4.10;99.90
5154;DHT22;2595;53.584;10.084;2023-02-24T10:18:32;4.10;99.90
5154;DHT22;2595;53.584;10.084;2023-02-24T10:21:26;4.10;99.90
5154;DHT22;2595;53.584;10.084;2023-02-24T10:24:40;4.10;99.90
5154;DHT22;2595;53.584;10.084;2023-02-24T10:27:32;4.10;99.90
5154;DHT22;2595;53.584;10.084;2023-02-24T10:30:19;4.10;99.90
5154;DHT22;2595;53.584;10.084;2023-02-24T10:32:57;4.10;99.90
5154;DHT22;2595;53.584;10.084;2023-02-24T10:35:26;4.20;99.90
5154;DHT22;2595;53.584;10.084;2023-02-24T10:37:59;4.20;99.90
5154;DHT22;2595;53.584;10.084;2023-02-24T10:40:30;4.20;99.90
5154;DHT22;2595;53.584;10.084;2023-02-24T10:43:10;4.20;99.90
5154;DHT22;2595;53.584;10.084;2023-02-24T10:45:43;4.30;99.90
5154;DHT22;2595;53.584;10.084;2023-02-24T10:48:21;4.30;99.90
5154;DHT22;2595;53.584;10.084;2023-02-24T10:50:53;4.20;99.90
5154;DHT22;2595;53.584;10.084;2023-02-24T10:53:23;4.30;99.90
5154;DHT22;2595;53.584;10.084;2023-02-24T10:56:11;4.30;99.90
5154;DHT22;2595;53.584;10.084;2023-02-24T10:59:13;4.30;99.90
5154;DHT22;2595;53.584;10.084;2023-02-24T11:04:54;4.30;99.90
5154;DHT22;2595;53.584;10.084;2023-02-24T11:07:22;4.30;99.90
5154;DHT22;2595;53.584;10.084;2023-02-24T11:10:19;4.40;99.90
5154;DHT22;2595;53.584;10.084;2023-02-24T11:12:56;4.40;99.90
5154;DHT22;2595;53.584;10.084;2023-02-24T11:15:48;4.40;99.90
5154;DHT22;2595;53.584;10.084;2023-02-24T11:18:33;4.50;99.90
5154;DHT22;2595;53.584;10.084;2023-02-24T11:21:03;4.50;99.90
5154;DHT22;2595;53.584;10.084;2023-02-24T11:23:33;4.50;99.90
5154;DHT22;2595;53.584;10.084;2023-02-24T11:26:20;4.50;99.90
5154;DHT22;2595;53.584;10.084;2023-02-24T11:29:28;4.60;99.90
5154;DHT22;2595;53.584;10.084;2023-02-24T11:32:05;4.60;99.90
5154;DHT22;2595;53.584;10.084;2023-02-24T11:35:08;4.60;99.90
5154;DHT22;2595;53.584;10.084;2023-02-24T11:40:20;4.70;99.90
5154;DHT22;2595;53.584;10.084;2023-02-24T11:50:55;4.80;99.90
5154;DHT22;2595;53.584;10.084;2023-02-24T12:01:40;4.90;99.90
5154;DHT22;2595;53.584;10.084;2023-02-24T12:04:49;4.90;99.90
5154;DHT22;2595;53.584;10.084;2023-02-24T12:08:04;5.00;99.90
5154;DHT22;2595;53.584;10.084;2023-02-24T12:10:28;5.00;99.90
5154;DHT22;2595;53.584;10.084;2023-02-24T12:15:57;5.00;99.90
5154;DHT22;2595;53.584;10.084;2023-02-24T12:18:36;5.00;99.90
5154;DHT22;2595;53.584;10.084;2023-02-24T12:21:08;5.10;99.90
5154;DHT22;2595;53.584;10.084;2023-02-24T12:23:42;5.10;99.90
5154;DHT22;2595;53.584;10.084;2023-02-24T12:31:59;5.20;99.90
5154;DHT22;2595;53.584;10.084;2023-02-24T12:37:27;5.40;99.90
5154;DHT22;2595;53.584;10.084;2023-02-24T12:50:44;5.50;99.90
5154;DHT22;2595;53.584;10.084;2023-02-24T12:53:26;5.50;99.90
5154;DHT22;2595;53.584;10.084;2023-02-24T12:58:29;5.60;99.90
5154;DHT22;2595;53.584;10.084;2023-02-24T13:01:13;5.60;99.90
5154;DHT22;2595;53.584;10.084;2023-02-24T13:07:03;5.60;99.90
5154;DHT22;2595;53.584;10.084;2023-02-24T13:10:09;5.60;99.90
5154;DHT22;2595;53.584;10.084;2023-02-24T13:15:28;5.70;99.90
5154;DHT22;2595;53.584;10.084;2023-02-24T13:17:57;5.80;99.90
5154;DHT22;2595;53.584;10.084;2023-02-24T13:20:35;5.80;99.90
5154;DHT22;2595;53.584;10.084;2023-02-24T13:23:02;5.90;99.90
5154;DHT22;2595;53.584;10.084;2023-02-24T13:25:34;5.90;99.90
5154;DHT22;2595;53.584;10.084;2023-02-24T13:28:04;6.10;99.90
5154;DHT22;2595;53.584;10.084;2023-02-24T13:30:36;6.10;99.90
5154;DHT22;2595;53.584;10.084;2023-02-24T13:35:43;6.10;99.90
5154;DHT22;2595;53.584;10.084;2023-02-24T13:40:46;6.10;99.90
5154;DHT22;2595;53.584;10.084;2023-02-24T13:43:26;6.10;99.90
5154;DHT22;2595;53.584;10.084;2023-02-24T13:45:59;6.10;99.90
5154;DHT22;2595;53.584;10.084;2023-02-24T13:48:41;6.10;99.90
5154;DHT22;2595;53.584;10.084;2023-02-24T13:54:18;6.20;99.90
5154;DHT22;2595;53.584;10.084;2023-02-24T14:02:14;6.20;99.90
5154;DHT22;2595;53.584;10.084;2023-02-24T14:04:48;6.10;99.90
5154;DHT22;2595;53.584;10.084;2023-02-24T14:07:41;6.20;99.90
5154;DHT22;2595;53.584;10.084;2023-02-24T14:10:19;6.20;99.90
5154;DHT22;2595;53.584;10.084;2023-02-24T14:12:47;6.20;99.90
5154;DHT22;2595;53.584;10.084;2023-02-24T14:15:22;6.20;99.90
5154;DHT22;2595;53.584;10.084;2023-02-24T14:18:18;6.30;99.90
5154;DHT22;2595;53.584;10.084;2023-02-24T14:20:44;6.40;99.90
5154;DHT22;2595;53.584;10.084;2023-02-24T14:23:21;6.60;99.90
5154;DHT22;2595;53.584;10.084;2023-02-24T14:26:01;6.80;99.90
5154;DHT22;2595;53.584;10.084;2023-02-24T14:28:32;6.90;99.90
5154;DHT22;2595;53.584;10.084;2023-02-24T14:31:02;7.00;99.90
5154;DHT22;2595;53.584;10.084;2023-02-24T14:33:33;7.20;99.90
5154;DHT22;2595;53.584;10.084;2023-02-24T14:36:01;7.20;99.90
5154;DHT22;2595;53.584;10.084;2023-02-24T14:38:37;7.30;99.90
5154;DHT22;2595;53.584;10.084;2023-02-24T14:41:20;7.40;99.90
5154;DHT22;2595;53.584;10.084;2023-02-24T14:43:47;7.50;99.90
5154;DHT22;2595;53.584;10.084;2023-02-24T14:46:13;7.50;99.90
5154;DHT22;2595;53.584;10.084;2023-02-24T14:48:42;7.60;99.90
5154;DHT22;2595;53.584;10.084;2023-02-24T14:51:21;7.70;99.90
5154;DHT22;2595;53.584;10.084;2023-02-24T14:53:57;7.70;99.90
5154;DHT22;2595;53.584;10.084;2023-02-24T14:56:28;7.60;99.90
5154;DHT22;2595;53.584;10.084;2023-02-24T14:59:05;7.60;99.90
5154;DHT22;2595;53.584;10.084;2023-02-24T15:01:39;7.50;99.90
5154;DHT22;2595;53.584;10.084;2023-02-24T15:06:49;7.40;99.90
5154;DHT22;2595;53.584;10.084;2023-02-24T15:09:18;7.30;99.90
5154;DHT22;2595;53.584;10.084;2023-02-24T15:11:45;7.30;99.90
5154;DHT22;2595;53.584;10.084;2023-02-24T15:14:38;7.30;99.90
5154;DHT22;2595;53.584;10.084;2023-02-24T15:17:14;7.20;99.90
5154;DHT22;2595;53.584;10.084;2023-02-24T15:19:41;7.20;99.90
5154;DHT22;2595;53.584;10.084;2023-02-24T15:22:20;7.10;99.90
5154;DHT22;2595;53.584;10.084;2023-02-24T15:24:46;7.00;99.90
5154;DHT22;2595;53.584;10.084;2023-02-24T15:29:38;6.90;99.90
5154;DHT22;2595;53.584;10.084;2023-02-24T15:32:04;6.90;99.90
5154;DHT22;2595;53.584;10.084;2023-02-24T15:34:34;6.90;99.90
5154;DHT22;2595;53.584;10.084;2023-02-24T15:37:15;6.90;99.90
5154;DHT22;2595;53.584;10.084;2023-02-24T15:39:42;6.80;99.90
5154;DHT22;2595;53.584;10.084;2023-02-24T15:42:24;6.80;99.90
5154;DHT22;2595;53.584;10.084;2023-02-24T15:45:03;6.70;99.90
5154;DHT22;2595;53.584;10.084;2023-02-24T15:47:42;6.70;99.90
5154;DHT22;2595;53.584;10.084;2023-02-24T15:50:09;6.80;99.90
5154;DHT22;2595;53.584;10.084;2023-02-24T15:52:35;6.80;99.90
5154;DHT22;2595;53.584;10.084;2023-02-24T15:55:01;6.80;99.90
5154;DHT22;2595;53.584;10.084;2023-02-24T15:57:29;6.70;99.90
5154;DHT22;2595;53.584;10.084;2023-02-24T15:59:55;6.70;99.90
5154;DHT22;2595;53.584;10.084;2023-02-24T16:02:22;6.70;99.90
5154;DHT22;2595;53.584;10.084;2023-02-24T16:04:49;6.70;99.90
5154;DHT22;2595;53.584;10.084;2023-02-24T16:07:31;6.70;99.90
5154;DHT22;2595;53.584;10.084;2023-02-24T16:09:58;6.70;99.90
5154;DHT22;2595;53.584;10.084;2023-02-24T16:12:29;6.70;99.90
5154;DHT22;2595;53.584;10.084;2023-02-24T16:14:59;6.70;99.90
5154;DHT22;2595;53.584;10.084;2023-02-24T16:17:37;6.70;99.90
5154;DHT22;2595;53.584;10.084;2023-02-24T16:22:36;6.60;99.90
5154;DHT22;2595;53.584;10.084;2023-02-24T16:25:02;6.60;99.90
5154;DHT22;2595;53.584;10.084;2023-02-24T16:27:29;6.50;99.90
5154;DHT22;2595;53.584;10.084;2023-02-24T16:29:55;6.50;99.90
5154;DHT22;2595;53.584;10.084;2023-02-24T16:32:22;6.50;99.90
5154;DHT22;2595;53.584;10.084;2023-02-24T16:34:52;6.50;99.90
5154;DHT22;2595;53.584;10.084;2023-02-24T16:37:23;6.50;99.90
5154;DHT22;2595;53.584;10.084;2023-02-24T16:39:49;6.50;99.90
5154;DHT22;2595;53.584;10.084;2023-02-24T16:42:15;6.40;99.90
5154;DHT22;2595;53.584;10.084;2023-02-24T16:44:41;6.40;99.90
5154;DHT22;2595;53.584;10.084;2023-02-24T16:47:10;6.40;99.90
5154;DHT22;2595;53.584;10.084;2023-02-24T16:49:37;6.40;99.90
5154;DHT22;2595;53.584;10.084;2023-02-24T16:52:02;6.40;99.90
5154;DHT22;2595;53.584;10.084;2023-02-24T16:54:28;6.40;99.90
5154;DHT22;2595;53.584;10.084;2023-02-24T16:56:57;6.40;99.90
5154;DHT22;2595;53.584;10.084;2023-02-24T16:59:23;6.40;99.90
5154;DHT22;2595;53.584;10.084;2023-02-24T17:01:52;6.30;99.90
5154;DHT22;2595;53.584;10.084;2023-02-24T17:04:18;6.30;99.90
5154;DHT22;2595;53.584;10.084;2023-02-24T17:06:45;6.30;99.90
5154;DHT22;2595;53.584;10.084;2023-02-24T17:09:11;6.40;99.90
5154;DHT22;2595;53.584;10.084;2023-02-24T17:11:40;6.40;99.90
5154;DHT22;2595;53.584;10.084;2023-02-24T17:14:06;6.30;99.90
5154;DHT22;2595;53.584;10.084;2023-02-24T17:16:32;6.30;99.90
5154;DHT22;2595;53.584;10.084;2023-02-24T17:18:57;6.30;99.90
5154;DHT22;2595;53.584;10.084;2023-02-24T17:21:23;6.30;99.90
5154;DHT22;2595;53.584;10.084;2023-02-24T17:23:49;6.30;99.90
5154;DHT22;2595;53.584;10.084;2023-02-24T17:26:15;6.30;99.90
5154;DHT22;2595;53.584;10.084;2023-02-24T17:28:42;6.30;99.90
5154;DHT22;2595;53.584;10.084;2023-02-24T17:31:07;6.40;99.90
5154;DHT22;2595;53.584;10.084;2023-02-24T17:33:33;6.30;99.90
5154;DHT22;2595;53.584;10.084;2023-02-24T17:35:59;6.30;99.90
5154;DHT22;2595;53.584;10.084;2023-02-24T17:38:25;6.30;99.90
5154;DHT22;2595;53.584;10.084;2023-02-24T17:40:51;6.30;99.90
5154;DHT22;2595;53.584;10.084;2023-02-24T17:43:17;6.30;99.90
5154;DHT22;2595;53.584;10.084;2023-02-24T17:45:44;6.30;99.90
5154;DHT22;2595;53.584;10.084;2023-02-24T17:48:12;6.20;99.90
5154;DHT22;2595;53.584;10.084;2023-02-24T17:50:40;6.20;99.90
5154;DHT22;2595;53.584;10.084;2023-02-24T17:53:06;6.20;99.90
5154;DHT22;2595;53.584;10.084;2023-02-24T17:55:32;6.20;99.90
5154;DHT22;2595;53.584;10.084;2023-02-24T17:57:58;6.20;99.90
5154;DHT22;2595;53.584;10.084;2023-02-24T18:00:25;6.10;99.90
5154;DHT22;2595;53.584;10.084;2023-02-24T18:02:52;6.10;99.90
5154;DHT22;2595;53.584;10.084;2023-02-24T18:05:17;6.10;99.90
5154;DHT22;2595;53.584;10.084;2023-02-24T18:07:43;6.10;99.90
5154;DHT22;2595;53.584;10.084;2023-02-24T18:10:09;6.00;99.90
5154;DHT22;2595;53.584;10.084;2023-02-24T18:12:35;6.00;99.90
5154;DHT22;2595;53.584;10.084;2023-02-24T18:15:02;6.00;99.90
5154;DHT22;2595;53.584;10.084;2023-02-24T18:17:28;6.00;99.90
5154;DHT22;2595;53.584;10.084;2023-02-24T18:19:54;6.00;99.90